Time;durP1;ratioP1;P1;durP2;ratioP2;P2;SDS_P1;SDS_P2;PMS_P1;PMS_P2;Temp;Humidity;BMP_temperature;BMP_pressure;BME280_temperature;BME280_humidity;BME280_pressure;Samples;Min_cycle;Max_cycle;Signal;HPM_P1;HPM_P2
2022/10/28 00:02:05;;;;;;;15.70;6.00;;;13.50;99.90;;;;;;5243034;28;20201;-50
2022/10/28 00:04:36;;;;;;;8.43;6.10;;;13.60;99.90;;;;;;5246708;28;20243;-49
2022/10/28 00:07:07;;;;;;;6.07;5.23;;;13.90;99.90;;;;;;5246446;28;20613;-50
2022/10/28 00:09:38;;;;;;;5.37;4.90;;;13.80;99.90;;;;;;5246397;28;20216;-50
2022/10/28 00:12:09;;;;;;;5.93;5.37;;;13.90;99.90;;;;;;5243713;28;21062;-50
2022/10/28 00:14:39;;;;;;;8.00;5.37;;;14.00;99.90;;;;;;5241356;28;20240;-50
2022/10/28 00:17:10;;;;;;;12.93;5.67;;;13.90;99.90;;;;;;5244826;28;20677;-51
2022/10/28 00:19:40;;;;;;;7.50;5.60;;;13.90;99.90;;;;;;5239139;28;20183;-50
2022/10/28 00:22:11;;;;;;;7.93;5.10;;;13.90;99.90;;;;;;5244957;28;20210;-50
2022/10/28 00:24:42;;;;;;;5.40;5.00;;;13.90;99.90;;;;;;5245696;28;20217;-49
2022/10/28 00:27:12;;;;;;;8.20;5.90;;;13.90;99.90;;;;;;5229413;28;20178;-50
2022/10/28 00:29:43;;;;;;;9.17;5.53;;;14.00;99.90;;;;;;5248745;28;20187;-50
2022/10/28 00:32:14;;;;;;;10.10;5.03;;;14.00;99.90;;;;;;5243984;28;20314;-50
2022/10/28 00:34:44;;;;;;;5.33;4.83;;;13.90;99.90;;;;;;5239388;28;20246;-50
2022/10/28 00:37:15;;;;;;;7.47;5.57;;;13.80;99.90;;;;;;5240313;28;20667;-51
2022/10/28 00:39:46;;;;;;;16.10;5.97;;;13.80;99.90;;;;;;5230691;28;20214;-50
2022/10/28 00:42:19;;;;;;;10.73;5.90;;;13.80;99.90;;;;;;5238652;28;20198;-50
2022/10/28 00:45:00;;;;;;;6.33;5.70;;;13.90;99.90;;;;;;5235009;28;20182;-50
2022/10/28 00:47:40;;;;;;;10.30;5.27;;;13.80;99.90;;;;;;5242261;28;20436;-51
2022/10/28 00:50:39;;;;;;;11.83;5.60;;;13.80;99.90;;;;;;5242853;28;20524;-50
2022/10/28 00:53:23;;;;;;;6.13;5.53;;;14.00;99.90;;;;;;5234782;28;20482;-49
2022/10/28 00:55:56;;;;;;;7.53;6.03;;;14.00;99.90;;;;;;5239190;28;20436;-51
2022/10/28 00:58:27;;;;;;;9.33;5.87;;;13.90;99.90;;;;;;5245481;28;20472;-49
2022/10/28 01:00:57;;;;;;;7.67;5.47;;;13.80;99.90;;;;;;5239339;28;20761;-51
2022/10/28 01:03:28;;;;;;;7.37;5.07;;;13.90;99.90;;;;;;5241534;28;20473;-50
2022/10/28 01:06:00;;;;;;;18.97;7.07;;;13.90;99.90;;;;;;5242217;28;20190;-49
2022/10/28 01:08:31;;;;;;;9.23;6.20;;;13.90;99.90;;;;;;5244342;28;20186;-50
2022/10/28 01:11:23;;;;;;;10.93;5.77;;;13.90;99.90;;;;;;5244372;28;20958;-49
2022/10/28 01:14:31;;;;;;;6.47;5.50;;;13.90;99.90;;;;;;5239989;28;20195;-51
2022/10/28 01:17:13;;;;;;;7.30;5.57;;;13.80;99.90;;;;;;5213543;28;20924;-50
2022/10/28 01:20:21;;;;;;;6.10;5.50;;;13.90;99.90;;;;;;5238225;28;20507;-50
2022/10/28 01:23:27;;;;;;;6.43;5.80;;;14.00;99.90;;;;;;5245389;28;21045;-50
2022/10/28 01:26:13;;;;;;;6.40;5.33;;;14.00;99.90;;;;;;5240080;28;20441;-50
2022/10/28 01:29:27;;;;;;;10.97;5.80;;;14.20;99.90;;;;;;5244794;28;20441;-50
2022/10/28 01:32:10;;;;;;;8.07;5.60;;;14.00;99.90;;;;;;5237906;28;20475;-51
2022/10/28 01:34:47;;;;;;;10.77;6.00;;;14.00;99.90;;;;;;5267467;28;20550;-51
2022/10/28 01:37:38;;;;;;;5.70;5.20;;;13.90;99.90;;;;;;5246304;28;20547;-50
2022/10/28 01:40:24;;;;;;;10.20;5.70;;;14.10;99.90;;;;;;5242678;28;20555;-50
2022/10/28 01:43:14;;;;;;;5.33;5.00;;;14.20;99.90;;;;;;5251126;28;20477;-50
2022/10/28 01:45:54;;;;;;;6.20;5.57;;;14.10;99.90;;;;;;5251569;28;20432;-49
2022/10/28 01:48:43;;;;;;;19.33;4.87;;;14.00;99.90;;;;;;5246302;28;20967;-50
2022/10/28 01:51:39;;;;;;;5.30;4.73;;;14.00;99.90;;;;;;5248105;28;20444;-49
2022/10/28 01:54:16;;;;;;;11.00;5.37;;;13.90;99.90;;;;;;5246507;28;20585;-50
2022/10/28 01:56:48;;;;;;;13.10;5.40;;;14.00;99.90;;;;;;5250325;28;21270;-51
2022/10/28 01:59:25;;;;;;;7.80;5.23;;;14.10;99.90;;;;;;5245794;28;20494;-49
2022/10/28 02:01:56;;;;;;;6.77;6.07;;;14.00;99.90;;;;;;5264909;28;20463;-50
2022/10/28 02:04:26;;;;;;;13.20;5.90;;;14.00;99.90;;;;;;5248734;28;20885;-51
2022/10/28 02:06:59;;;;;;;6.60;5.70;;;14.00;99.90;;;;;;5245870;28;20182;-50
2022/10/28 02:09:43;;;;;;;11.10;5.50;;;14.00;99.90;;;;;;5249998;28;20639;-50
2022/10/28 02:12:32;;;;;;;10.80;5.60;;;14.00;99.90;;;;;;5249638;28;20439;-48
2022/10/28 02:15:13;;;;;;;6.97;5.57;;;13.90;99.90;;;;;;5244596;28;20424;-50
2022/10/28 02:17:52;;;;;;;9.03;6.30;;;13.90;99.90;;;;;;5251594;28;20436;-51
2022/10/28 02:20:41;;;;;;;7.97;6.20;;;13.80;99.90;;;;;;5241090;28;20872;-50
2022/10/28 02:23:42;;;;;;;8.43;6.00;;;13.80;99.90;;;;;;5242776;28;20488;-51
2022/10/28 02:26:19;;;;;;;6.47;5.83;;;13.80;99.90;;;;;;5238755;28;20466;-51
2022/10/28 02:28:59;;;;;;;7.40;5.70;;;13.70;99.90;;;;;;5246758;28;20461;-50
2022/10/28 02:31:39;;;;;;;7.17;5.70;;;13.60;99.90;;;;;;5262417;28;20445;-51
2022/10/28 02:34:16;;;;;;;10.23;6.07;;;13.50;99.90;;;;;;5245936;28;20890;-50
2022/10/28 02:36:51;;;;;;;8.67;4.90;;;13.50;99.90;;;;;;5240465;28;20798;-49
2022/10/28 02:39:26;;;;;;;7.27;5.00;;;13.40;99.90;;;;;;5248170;28;20473;-49
2022/10/28 02:42:02;;;;;;;10.10;6.47;;;13.40;99.90;;;;;;5249893;28;20459;-50
2022/10/28 02:44:38;;;;;;;10.90;5.37;;;13.40;99.90;;;;;;5239602;28;20447;-50
2022/10/28 02:47:18;;;;;;;5.77;5.30;;;13.40;99.90;;;;;;5238944;28;20470;-49
2022/10/28 02:49:55;;;;;;;8.00;5.27;;;13.60;99.90;;;;;;5243257;28;20486;-49
2022/10/28 02:52:30;;;;;;;7.73;5.40;;;13.50;99.90;;;;;;5239945;28;20489;-50
2022/10/28 02:55:03;;;;;;;13.00;6.00;;;13.70;99.90;;;;;;5247660;28;20428;-51
2022/10/28 02:57:41;;;;;;;6.70;5.43;;;13.70;99.90;;;;;;5250089;28;20493;-49
2022/10/28 03:00:16;;;;;;;7.20;5.20;;;13.70;99.90;;;;;;5243494;28;20493;-50
2022/10/28 03:02:47;;;;;;;8.80;6.10;;;13.50;99.90;;;;;;5248854;28;20551;-50
2022/10/28 03:05:18;;;;;;;6.83;6.07;;;13.50;99.90;;;;;;5239363;28;20611;-50
2022/10/28 03:07:49;;;;;;;7.73;6.07;;;13.40;99.90;;;;;;5237260;28;20198;-50
2022/10/28 03:10:20;;;;;;;6.43;5.80;;;13.30;99.90;;;;;;5245729;28;20413;-50
2022/10/28 03:12:50;;;;;;;8.27;6.43;;;13.30;99.90;;;;;;5245937;28;20210;-50
2022/10/28 03:15:21;;;;;;;7.43;5.93;;;13.40;99.90;;;;;;5231217;28;20273;-49
2022/10/28 03:17:52;;;;;;;8.27;5.40;;;13.50;99.90;;;;;;5243585;28;20178;-49
2022/10/28 03:20:23;;;;;;;6.13;5.53;;;13.50;99.90;;;;;;5241440;28;20183;-50
2022/10/28 03:22:53;;;;;;;6.87;5.60;;;13.50;99.90;;;;;;5244054;28;20218;-49
2022/10/28 03:25:24;;;;;;;5.47;4.97;;;13.40;99.90;;;;;;5244708;28;20589;-50
2022/10/28 03:27:54;;;;;;;10.30;5.60;;;13.40;99.90;;;;;;5250125;28;20215;-50
2022/10/28 03:30:25;;;;;;;10.10;6.70;;;13.30;99.90;;;;;;5233827;28;20224;-50
2022/10/28 03:32:56;;;;;;;8.00;6.00;;;13.20;99.90;;;;;;5230822;28;20211;-51
2022/10/28 03:35:26;;;;;;;9.30;6.40;;;13.10;99.90;;;;;;5248640;28;20182;-50
2022/10/28 03:37:57;;;;;;;16.40;6.87;;;13.10;99.90;;;;;;5236233;28;20189;-50
2022/10/28 03:40:28;;;;;;;12.17;6.37;;;13.00;99.90;;;;;;5246945;28;20542;-50
2022/10/28 03:42:59;;;;;;;8.80;5.67;;;12.90;99.90;;;;;;5246179;28;20652;-49
2022/10/28 03:45:29;;;;;;;7.23;6.23;;;12.90;99.90;;;;;;5240192;28;20178;-49
2022/10/28 03:48:00;;;;;;;6.20;5.50;;;12.90;99.90;;;;;;5246777;28;20327;-50
2022/10/28 03:50:31;;;;;;;8.03;5.97;;;12.80;99.90;;;;;;5246574;28;20241;-51
2022/10/28 03:53:01;;;;;;;11.30;7.17;;;12.70;99.90;;;;;;5240732;28;20199;-50
2022/10/28 03:55:32;;;;;;;7.83;7.00;;;12.70;99.90;;;;;;5245507;28;20186;-50
2022/10/28 03:58:03;;;;;;;7.47;5.50;;;12.70;99.90;;;;;;5235875;28;20829;-50
2022/10/28 04:00:33;;;;;;;8.40;5.70;;;12.70;99.90;;;;;;5248504;28;20555;-50
2022/10/28 04:03:04;;;;;;;12.37;5.80;;;12.60;99.90;;;;;;5235766;28;20573;-50
2022/10/28 04:05:35;;;;;;;8.50;5.90;;;12.70;99.90;;;;;;5247311;28;20178;-49
2022/10/28 04:08:05;;;;;;;11.00;6.63;;;12.60;99.90;;;;;;5245880;28;20181;-50
2022/10/28 04:10:36;;;;;;;8.17;6.83;;;12.60;99.90;;;;;;5244750;28;20190;-50
2022/10/28 04:13:07;;;;;;;10.20;7.70;;;12.60;99.90;;;;;;5241377;28;20512;-50
2022/10/28 04:15:38;;;;;;;16.73;7.60;;;12.60;99.90;;;;;;5248487;28;20584;-49
2022/10/28 04:18:09;;;;;;;7.23;6.27;;;12.70;99.90;;;;;;5245033;28;20180;-52
2022/10/28 04:20:40;;;;;;;9.67;6.60;;;12.60;99.90;;;;;;5237152;28;20596;-50
2022/10/28 04:23:15;;;;;;;9.63;7.03;;;12.60;99.90;;;;;;5246844;28;20461;-51
2022/10/28 04:25:51;;;;;;;7.20;6.17;;;12.60;99.90;;;;;;5236405;28;20822;-49
2022/10/28 04:28:24;;;;;;;7.80;6.30;;;12.50;99.90;;;;;;5242526;28;20428;-52
2022/10/28 04:30:55;;;;;;;15.70;7.20;;;12.50;99.90;;;;;;5242834;28;20441;-51
2022/10/28 04:33:26;;;;;;;9.00;7.17;;;12.40;99.90;;;;;;5245796;28;20447;-52
2022/10/28 04:35:56;;;;;;;10.83;6.90;;;12.40;99.90;;;;;;5242508;28;20189;-49
2022/10/28 04:38:27;;;;;;;12.70;7.43;;;12.40;99.90;;;;;;5241968;28;20204;-51
2022/10/28 04:40:58;;;;;;;12.80;7.90;;;12.40;99.90;;;;;;5228553;28;20202;-48
2022/10/28 04:43:28;;;;;;;9.73;7.20;;;12.40;99.90;;;;;;5239589;28;20678;-51
2022/10/28 04:46:04;;;;;;;16.23;7.00;;;12.40;99.90;;;;;;5246701;28;20265;-50
2022/10/28 04:48:35;;;;;;;8.20;7.40;;;12.40;99.90;;;;;;5232171;28;20180;-49
2022/10/28 04:51:06;;;;;;;10.57;8.50;;;12.30;99.90;;;;;;5245650;28;20514;-51
2022/10/28 04:53:36;;;;;;;16.93;8.03;;;12.30;99.90;;;;;;5231592;28;21070;-49
2022/10/28 04:56:08;;;;;;;13.50;8.17;;;12.30;99.90;;;;;;5243192;28;20224;-50
2022/10/28 04:58:39;;;;;;;14.73;7.87;;;12.30;99.90;;;;;;5237540;28;20570;-50
2022/10/28 05:01:10;;;;;;;11.40;7.07;;;12.30;99.90;;;;;;5247792;28;20779;-50
2022/10/28 05:03:41;;;;;;;20.63;9.13;;;12.30;99.90;;;;;;5240057;28;21090;-50
2022/10/28 05:06:11;;;;;;;12.87;7.67;;;12.30;99.90;;;;;;5237709;28;20661;-51
2022/10/28 05:08:42;;;;;;;9.73;6.97;;;12.30;99.90;;;;;;5234053;28;20270;-49
2022/10/28 05:11:13;;;;;;;9.47;7.23;;;12.30;99.90;;;;;;5236043;28;20174;-49
2022/10/28 05:13:44;;;;;;;16.07;7.60;;;12.20;99.90;;;;;;5238991;28;20283;-49
2022/10/28 05:16:15;;;;;;;11.90;8.17;;;12.20;99.90;;;;;;5249892;28;20423;-51
2022/10/28 05:18:46;;;;;;;9.67;7.30;;;12.20;99.90;;;;;;5239336;28;20183;-50
2022/10/28 05:21:16;;;;;;;16.33;8.40;;;12.20;99.90;;;;;;5243031;28;20231;-52
2022/10/28 05:23:47;;;;;;;14.43;7.97;;;12.20;99.90;;;;;;5241995;28;20194;-49
2022/10/28 05:26:18;;;;;;;11.20;7.80;;;12.20;99.90;;;;;;5243612;28;20186;-50
2022/10/28 05:28:49;;;;;;;12.63;7.07;;;12.10;99.90;;;;;;5224385;28;20186;-52
2022/10/28 05:31:20;;;;;;;11.10;8.70;;;12.10;99.90;;;;;;5243074;28;20175;-51
2022/10/28 05:33:51;;;;;;;12.77;8.13;;;12.10;99.90;;;;;;5237508;28;20465;-50
2022/10/28 05:36:21;;;;;;;12.00;9.10;;;12.20;99.90;;;;;;5236584;28;20179;-51
2022/10/28 05:38:52;;;;;;;15.07;8.63;;;12.20;99.90;;;;;;5242839;28;20190;-51
2022/10/28 05:41:23;;;;;;;14.47;7.73;;;12.30;99.90;;;;;;5243241;28;20175;-50
2022/10/28 05:43:53;;;;;;;13.73;7.50;;;12.30;99.90;;;;;;5243141;28;20202;-51
2022/10/28 05:46:24;;;;;;;13.67;7.47;;;12.30;99.90;;;;;;5235003;28;20182;-49
2022/10/28 05:48:55;;;;;;;13.43;7.80;;;12.30;99.90;;;;;;5240137;28;20651;-49
2022/10/28 05:51:25;;;;;;;9.80;7.17;;;12.30;99.90;;;;;;5242971;28;20182;-51
2022/10/28 05:53:56;;;;;;;9.93;7.83;;;12.40;99.90;;;;;;5243601;28;20198;-51
2022/10/28 05:56:27;;;;;;;13.67;8.10;;;12.40;99.90;;;;;;5246610;28;20178;-50
2022/10/28 05:58:57;;;;;;;16.37;7.57;;;12.50;99.90;;;;;;5241183;28;20183;-50
2022/10/28 06:01:28;;;;;;;12.73;7.90;;;12.60;99.90;;;;;;5241714;28;20269;-50
2022/10/28 06:03:59;;;;;;;16.00;8.70;;;12.70;99.90;;;;;;5245820;28;20214;-49
2022/10/28 06:06:29;;;;;;;9.43;7.03;;;12.70;99.90;;;;;;5238717;28;20261;-51
2022/10/28 06:09:00;;;;;;;9.47;6.93;;;12.80;99.90;;;;;;5236045;28;20191;-49
2022/10/28 06:11:31;;;;;;;14.97;7.73;;;13.10;99.90;;;;;;5227317;28;20183;-49
2022/10/28 06:14:02;;;;;;;12.50;6.67;;;13.20;99.90;;;;;;5244645;28;20203;-49
2022/10/28 06:16:33;;;;;;;13.33;7.50;;;13.20;99.90;;;;;;5247693;28;20627;-53
2022/10/28 06:19:04;;;;;;;9.50;6.87;;;13.30;99.90;;;;;;5245758;28;20467;-51
2022/10/28 06:21:34;;;;;;;10.63;6.97;;;13.50;99.90;;;;;;5249224;28;20205;-49
2022/10/28 06:24:05;;;;;;;12.70;7.00;;;13.70;99.90;;;;;;5244907;28;20199;-49
2022/10/28 06:26:36;;;;;;;9.73;7.40;;;13.50;99.90;;;;;;5241906;28;21601;-50
2022/10/28 06:29:09;;;;;;;10.90;6.57;;;13.40;99.90;;;;;;5243055;28;21018;-50
2022/10/28 06:31:41;;;;;;;8.70;6.93;;;13.50;99.90;;;;;;5248697;28;20201;-50
2022/10/28 06:34:12;;;;;;;13.27;7.40;;;13.70;99.90;;;;;;5244537;28;20498;-50
2022/10/28 06:36:43;;;;;;;19.73;7.37;;;13.80;99.90;;;;;;5242560;28;20484;-52
2022/10/28 06:39:14;;;;;;;15.87;6.33;;;13.80;99.90;;;;;;5247785;28;20220;-50
2022/10/28 06:41:45;;;;;;;13.57;7.17;;;13.70;99.90;;;;;;5242095;28;20705;-50
2022/10/28 06:44:16;;;;;;;12.20;7.13;;;13.70;99.90;;;;;;5247210;28;20237;-50
2022/10/28 06:46:46;;;;;;;12.27;6.33;;;13.60;99.90;;;;;;5247860;28;20479;-51
2022/10/28 06:49:17;;;;;;;11.30;6.63;;;13.70;99.90;;;;;;5250567;28;20266;-50
2022/10/28 06:51:48;;;;;;;15.80;6.37;;;13.70;99.90;;;;;;5230619;28;20658;-50
2022/10/28 06:54:19;;;;;;;10.00;6.47;;;13.70;99.90;;;;;;5247355;28;20607;-49
2022/10/28 06:56:50;;;;;;;14.80;7.57;;;13.70;99.90;;;;;;5248457;28;20460;-49
2022/10/28 06:59:21;;;;;;;9.97;6.87;;;13.90;99.90;;;;;;5245455;28;20458;-50
2022/10/28 07:01:51;;;;;;;6.47;5.80;;;14.20;99.90;;;;;;5243258;28;20206;-51
2022/10/28 07:04:22;;;;;;;11.40;7.47;;;14.20;99.90;;;;;;5232855;28;20206;-52
2022/10/28 07:06:57;;;;;;;15.00;7.03;;;14.20;99.90;;;;;;5247188;28;20584;-51
2022/10/28 07:09:27;;;;;;;10.67;7.00;;;14.30;99.90;;;;;;5245617;28;20170;-51
2022/10/28 07:11:58;;;;;;;13.13;7.10;;;14.40;99.90;;;;;;5245903;28;20460;-51
2022/10/28 07:14:29;;;;;;;14.40;5.80;;;14.40;99.90;;;;;;5250201;28;20210;-50
2022/10/28 07:17:00;;;;;;;12.53;6.87;;;14.70;99.90;;;;;;5249913;28;20316;-51
2022/10/28 07:19:30;;;;;;;8.60;6.20;;;14.80;99.90;;;;;;5241540;28;20206;-54
2022/10/28 07:22:01;;;;;;;9.17;5.60;;;14.80;99.90;;;;;;5248305;28;20643;-54
2022/10/28 07:24:32;;;;;;;16.13;6.40;;;14.80;99.90;;;;;;5241720;28;20209;-52
2022/10/28 07:27:02;;;;;;;9.50;7.37;;;15.10;99.90;;;;;;5246161;28;20597;-54
2022/10/28 07:29:33;;;;;;;12.90;7.30;;;15.20;99.90;;;;;;5247550;28;20638;-53
2022/10/28 07:32:04;;;;;;;10.50;6.77;;;15.30;99.90;;;;;;5246479;28;20182;-53
2022/10/28 07:34:35;;;;;;;10.47;5.70;;;15.40;99.90;;;;;;5246763;28;20260;-53
2022/10/28 07:37:05;;;;;;;24.00;5.70;;;15.50;99.90;;;;;;5248141;28;20670;-51
2022/10/28 07:39:37;;;;;;;6.77;5.57;;;15.50;99.90;;;;;;5247859;28;20197;-53
2022/10/28 07:42:08;;;;;;;13.77;5.20;;;15.70;99.90;;;;;;5242261;28;20210;-53
2022/10/28 07:44:39;;;;;;;23.63;5.50;;;15.90;99.90;;;;;;5243882;28;20452;-52
2022/10/28 07:47:09;;;;;;;8.37;4.40;;;16.20;99.90;;;;;;5242924;28;20575;-52
2022/10/28 07:49:40;;;;;;;7.70;4.80;;;16.40;99.90;;;;;;5248565;28;20174;-53
2022/10/28 07:52:11;;;;;;;9.27;5.50;;;16.50;99.90;;;;;;5245983;28;20187;-53
2022/10/28 07:54:41;;;;;;;8.73;5.53;;;16.60;99.90;;;;;;5248168;28;20558;-54
2022/10/28 07:57:12;;;;;;;8.30;4.73;;;16.70;99.90;;;;;;5245869;28;20209;-53
2022/10/28 07:59:43;;;;;;;6.27;4.80;;;16.70;99.90;;;;;;5241849;28;20639;-51
2022/10/28 08:02:21;;;;;;;7.00;4.50;;;16.80;99.90;;;;;;5237207;28;20206;-54
2022/10/28 08:04:52;;;;;;;12.63;5.67;;;16.90;99.90;;;;;;5247007;28;20817;-53
2022/10/28 08:07:22;;;;;;;5.97;4.43;;;17.00;99.90;;;;;;5238622;28;20437;-54
2022/10/28 08:09:53;;;;;;;5.20;4.40;;;17.10;99.90;;;;;;5244772;28;20582;-54
2022/10/28 08:12:24;;;;;;;5.67;4.57;;;17.30;99.90;;;;;;5230787;28;20190;-51
2022/10/28 08:14:55;;;;;;;9.10;3.90;;;17.60;99.90;;;;;;5242999;28;20214;-54
2022/10/28 08:17:25;;;;;;;5.60;3.70;;;17.70;99.90;;;;;;5243651;28;20170;-54
2022/10/28 08:19:56;;;;;;;7.00;4.00;;;17.90;99.90;;;;;;5241347;28;20650;-52
2022/10/28 08:22:27;;;;;;;5.03;3.73;;;18.00;99.90;;;;;;5241402;28;20194;-54
2022/10/28 08:24:58;;;;;;;4.00;3.10;;;18.00;99.90;;;;;;5243237;28;20388;-53
2022/10/28 08:27:28;;;;;;;12.40;4.20;;;17.90;99.90;;;;;;5244955;28;20175;-52
2022/10/28 08:29:59;;;;;;;7.17;5.13;;;18.00;99.90;;;;;;5238708;28;20638;-54
2022/10/28 08:32:30;;;;;;;6.13;4.43;;;18.20;99.90;;;;;;5237021;28;20183;-54
2022/10/28 08:35:01;;;;;;;6.33;4.73;;;18.20;99.90;;;;;;5238516;28;20189;-53
2022/10/28 08:37:31;;;;;;;7.50;4.70;;;18.30;99.90;;;;;;5245693;28;20302;-54
2022/10/28 08:40:02;;;;;;;5.37;4.30;;;18.20;99.90;;;;;;5242114;28;20178;-53
2022/10/28 08:42:46;;;;;;;8.40;5.00;;;18.20;99.90;;;;;;5243189;28;20210;-52
2022/10/28 08:45:41;;;;;;;6.27;4.27;;;18.10;99.90;;;;;;5240051;28;20273;-52
2022/10/28 08:48:26;;;;;;;6.63;4.27;;;17.90;99.90;;;;;;5240976;28;20797;-54
2022/10/28 08:51:20;;;;;;;6.83;4.57;;;18.00;99.90;;;;;;5236387;28;20436;-53
2022/10/28 08:53:58;;;;;;;4.60;3.80;;;17.90;99.90;;;;;;5242258;28;20468;-52
2022/10/28 08:56:38;;;;;;;3.87;3.57;;;17.70;99.90;;;;;;5220974;28;20432;-53
2022/10/28 08:59:14;;;;;;;6.40;3.87;;;17.60;99.90;;;;;;5232607;28;20445;-52
2022/10/28 09:01:55;;;;;;;6.67;3.47;;;17.60;99.90;;;;;;5235888;28;20464;-53
2022/10/28 09:04:41;;;;;;;8.90;3.70;;;17.60;99.90;;;;;;5238772;28;20963;-54
2022/10/28 09:07:17;;;;;;;3.40;3.20;;;17.90;99.90;;;;;;5241188;28;20439;-52
2022/10/28 09:09:50;;;;;;;12.20;4.30;;;18.20;99.90;;;;;;5239648;28;20432;-53
2022/10/28 09:12:28;;;;;;;6.23;3.60;;;18.40;99.90;;;;;;5242381;28;20436;-52
2022/10/28 09:15:16;;;;;;;5.30;3.77;;;18.60;99.90;;;;;;5238333;28;20531;-54
2022/10/28 09:17:57;;;;;;;4.83;4.43;;;18.60;99.90;;;;;;5238698;28;20797;-51
2022/10/28 09:20:58;;;;;;;10.53;5.27;;;18.60;99.90;;;;;;5241903;28;20951;-53
2022/10/28 09:23:51;;;;;;;8.13;5.63;;;18.60;99.90;;;;;;5256177;28;20472;-55
2022/10/28 09:26:57;;;;;;;19.23;4.90;;;18.50;99.90;;;;;;5236654;28;21015;-52
2022/10/28 09:29:46;;;;;;;8.30;5.30;;;18.50;99.90;;;;;;5195561;28;21758;-54
2022/10/28 09:32:41;;;;;;;5.00;4.10;;;18.50;99.90;;;;;;5235612;28;20436;-54
2022/10/28 09:35:16;;;;;;;18.07;4.10;;;18.40;99.90;;;;;;5240756;28;21363;-53
2022/10/28 09:37:48;;;;;;;10.13;3.90;;;18.50;99.90;;;;;;5239152;28;20435;-51
2022/10/28 09:40:24;;;;;;;5.17;4.43;;;18.50;99.90;;;;;;5239436;28;20443;-51
2022/10/28 09:43:06;;;;;;;9.50;4.70;;;18.50;99.90;;;;;;5236357;28;20464;-54
2022/10/28 09:45:42;;;;;;;5.43;3.60;;;18.50;99.90;;;;;;5249607;28;20455;-53
2022/10/28 09:48:46;;;;;;;8.27;4.30;;;18.60;99.90;;;;;;5243253;28;20975;-52
2022/10/28 09:51:23;;;;;;;7.33;4.40;;;18.80;99.90;;;;;;5233239;28;20491;-52
2022/10/28 09:53:58;;;;;;;9.70;3.80;;;18.80;99.90;;;;;;5243237;28;20460;-53
2022/10/28 09:56:29;;;;;;;4.07;3.77;;;18.90;99.90;;;;;;5243739;28;20944;-52
2022/10/28 09:59:01;;;;;;;6.60;4.83;;;18.90;99.90;;;;;;5242540;28;20436;-52
2022/10/28 10:01:38;;;;;;;9.70;4.13;;;18.80;99.90;;;;;;5243721;28;20464;-52
2022/10/28 10:04:20;;;;;;;3.73;3.43;;;19.00;99.90;;;;;;5228755;28;20487;-50
2022/10/28 10:07:18;;;;;;;12.73;4.53;;;19.00;99.90;;;;;;5245083;28;20532;-50
2022/10/28 10:09:49;;;;;;;8.10;4.30;;;19.20;99.90;;;;;;5232952;28;20436;-52
2022/10/28 10:12:19;;;;;;;10.03;3.97;;;19.00;99.90;;;;;;5246369;28;20485;-50
2022/10/28 10:14:55;;;;;;;7.37;5.00;;;19.20;99.90;;;;;;5248401;28;20225;-52
2022/10/28 10:17:42;;;;;;;5.97;4.23;;;19.20;99.90;;;;;;5249809;28;20681;-50
2022/10/28 10:20:19;;;;;;;6.43;3.80;;;19.30;99.90;;;;;;5265561;28;20458;-50
2022/10/28 10:22:49;;;;;;;6.87;3.57;;;19.40;99.90;;;;;;5248939;28;20554;-51
2022/10/28 10:25:24;;;;;;;10.00;4.30;;;19.50;99.90;;;;;;5251977;28;20523;-51
2022/10/28 10:28:14;;;;;;;8.57;3.50;;;19.60;99.90;;;;;;5247870;28;20268;-51
2022/10/28 10:30:52;;;;;;;9.97;3.80;;;19.70;99.90;;;;;;5243650;28;20443;-52
2022/10/28 10:33:30;;;;;;;6.03;3.80;;;19.80;99.90;;;;;;5247347;28;20452;-51
2022/10/28 10:36:08;;;;;;;12.07;4.20;;;19.80;99.90;;;;;;5248462;28;20470;-51
2022/10/28 10:38:52;;;;;;;4.03;3.63;;;20.00;99.90;;;;;;5246236;28;20969;-51
2022/10/28 10:41:37;;;;;;;12.93;3.53;;;20.20;99.90;;;;;;5247344;28;20974;-51
2022/10/28 10:44:19;;;;;;;6.20;3.53;;;20.10;99.90;;;;;;5242708;28;20553;-52
2022/10/28 10:46:59;;;;;;;9.13;3.63;;;20.20;99.90;;;;;;5245461;28;20460;-52
2022/10/28 10:49:30;;;;;;;4.80;3.47;;;20.20;99.90;;;;;;5250540;28;20531;-51
2022/10/28 10:52:13;;;;;;;7.40;4.40;;;20.40;99.90;;;;;;5242341;28;20444;-52
2022/10/28 10:55:01;;;;;;;9.60;3.90;;;20.50;99.90;;;;;;5247066;28;20202;-51
2022/10/28 10:57:32;;;;;;;7.90;3.90;;;20.60;99.90;;;;;;5247940;28;20487;-51
2022/10/28 11:00:04;;;;;;;8.10;3.90;;;20.70;99.90;;;;;;5243325;28;20972;-51
2022/10/28 11:02:38;;;;;;;12.00;4.63;;;20.70;99.90;;;;;;5247852;28;20486;-51
2022/10/28 11:05:09;;;;;;;4.80;3.30;;;20.80;99.90;;;;;;5255861;28;20812;-51
2022/10/28 11:07:47;;;;;;;5.47;3.27;;;20.80;99.90;;;;;;5252625;28;20444;-53
2022/10/28 11:10:23;;;;;;;4.00;3.53;;;20.90;99.90;;;;;;5234362;28;20448;-51
2022/10/28 11:13:22;;;;;;;5.00;3.73;;;21.00;99.90;;;;;;5241211;28;20474;-51
2022/10/28 11:16:04;;;;;;;18.10;5.07;;;20.90;99.90;;;;;;5239002;28;20964;-51
2022/10/28 11:18:44;;;;;;;4.30;2.67;;;20.90;99.90;;;;;;5240670;28;20441;-53
2022/10/28 11:21:23;;;;;;;11.13;3.20;;;20.90;99.90;;;;;;5245574;28;20450;-51
2022/10/28 11:24:51;;;;;;;5.17;3.50;;;20.90;99.90;;;;;;5237918;28;20453;-53
2022/10/28 11:27:52;;;;;;;7.03;3.80;;;21.00;99.90;;;;;;5198950;28;20481;-52
2022/10/28 11:30:44;;;;;;;3.10;2.63;;;21.00;99.90;;;;;;5244211;28;21005;-51
2022/10/28 11:33:20;;;;;;;4.30;2.83;;;21.20;99.90;;;;;;5240918;28;20549;-52
2022/10/28 11:36:04;;;;;;;4.13;2.93;;;21.10;99.90;;;;;;5243827;28;20440;-52
2022/10/28 11:38:46;;;;;;;8.60;3.40;;;21.10;99.90;;;;;;5230015;28;20432;-51
2022/10/28 11:41:25;;;;;;;3.83;2.80;;;21.20;99.90;;;;;;5238598;28;20444;-52
2022/10/28 11:43:58;;;;;;;5.53;3.30;;;21.20;99.90;;;;;;5240714;28;20463;-52
2022/10/28 11:46:47;;;;;;;4.53;3.20;;;21.30;99.90;;;;;;5239864;28;20426;-52
2022/10/28 11:49:35;;;;;;;7.20;3.37;;;21.40;99.90;;;;;;5244779;28;20427;-52
2022/10/28 11:52:35;;;;;;;5.03;3.60;;;21.50;99.90;;;;;;5243155;28;20438;-52
2022/10/28 11:55:17;;;;;;;6.20;3.60;;;21.60;99.90;;;;;;5221419;28;20437;-54
2022/10/28 11:58:20;;;;;;;4.73;3.80;;;21.60;99.90;;;;;;5234452;28;20437;-52
2022/10/28 12:01:06;;;;;;;5.70;3.23;;;21.80;99.90;;;;;;5239796;28;20479;-50
2022/10/28 12:03:52;;;;;;;4.00;2.93;;;21.90;99.90;;;;;;5240422;28;20533;-54
2022/10/28 12:06:50;;;;;;;7.17;4.37;;;21.90;99.90;;;;;;5243975;28;20438;-54
2022/10/28 12:09:49;;;;;;;8.63;3.27;;;21.80;99.90;;;;;;5240671;28;20520;-54
2022/10/28 12:12:29;;;;;;;7.20;3.47;;;21.60;99.90;;;;;;5244291;28;20436;-53
2022/10/28 12:15:13;;;;;;;18.30;8.43;;;21.50;99.90;;;;;;5243908;28;20475;-53
2022/10/28 12:18:00;;;;;;;5.60;3.50;;;21.70;99.90;;;;;;5243640;28;21914;-51
2022/10/28 12:21:03;;;;;;;5.10;3.63;;;21.90;99.90;;;;;;5240996;28;21426;-54
2022/10/28 12:23:38;;;;;;;5.80;4.20;;;22.20;99.90;;;;;;5189422;28;20832;-55
2022/10/28 12:26:14;;;;;;;3.77;3.07;;;22.30;99.90;;;;;;5239792;28;20436;-52
2022/10/28 12:29:02;;;;;;;12.30;4.50;;;22.50;99.90;;;;;;5239628;28;20440;-55
2022/10/28 12:31:41;;;;;;;6.67;3.57;;;22.60;99.90;;;;;;5239800;28;20441;-54
2022/10/28 12:34:21;;;;;;;5.23;3.07;;;22.70;99.90;;;;;;5241062;28;20460;-53
2022/10/28 12:37:01;;;;;;;9.00;3.97;;;22.70;99.90;;;;;;5258889;28;20535;-53
2022/10/28 12:39:37;;;;;;;3.57;3.30;;;22.50;99.90;;;;;;5244255;28;20558;-55
2022/10/28 12:42:32;;;;;;;4.83;4.33;;;22.50;99.90;;;;;;5242758;28;20571;-53
2022/10/28 12:45:10;;;;;;;3.80;3.40;;;22.40;99.90;;;;;;5236068;28;20945;-52
2022/10/28 12:47:53;;;;;;;4.10;3.43;;;22.40;99.90;;;;;;5234525;28;20457;-52
2022/10/28 12:50:43;;;;;;;12.30;7.27;;;22.20;99.90;;;;;;5237881;28;20508;-54
2022/10/28 12:53:45;;;;;;;10.50;4.17;;;22.30;99.90;;;;;;5240152;28;20456;-53
2022/10/28 12:56:33;;;;;;;5.00;3.03;;;22.10;99.90;;;;;;5208286;28;20436;-54
2022/10/28 12:59:19;;;;;;;5.03;2.70;;;22.10;99.90;;;;;;5240105;28;20482;-54
2022/10/28 13:01:50;;;;;;;13.80;5.30;;;22.10;99.90;;;;;;5234108;28;20793;-53
2022/10/28 13:04:21;;;;;;;9.80;4.70;;;22.10;99.90;;;;;;5245775;28;20777;-54
2022/10/28 13:07:22;;;;;;;10.97;3.13;;;22.30;99.90;;;;;;5238836;28;20477;-54
2022/10/28 13:10:14;;;;;;;4.50;3.43;;;22.20;99.90;;;;;;5240121;28;20432;-54
2022/10/28 13:13:15;;;;;;;17.50;3.00;;;22.10;99.90;;;;;;5242571;28;20452;-53
2022/10/28 13:15:49;;;;;;;11.60;4.23;;;22.10;99.90;;;;;;5238860;28;21026;-52
2022/10/28 13:18:50;;;;;;;17.30;4.13;;;22.00;99.90;;;;;;5238646;28;20873;-54
2022/10/28 13:21:46;;;;;;;12.83;3.63;;;21.90;99.90;;;;;;5244976;28;20424;-55
2022/10/28 13:24:44;;;;;;;7.20;3.00;;;21.90;99.90;;;;;;5240164;28;20918;-53
2022/10/28 13:27:16;;;;;;;14.03;2.60;;;21.80;99.90;;;;;;5241495;28;20436;-54
2022/10/28 13:29:54;;;;;;;4.57;3.53;;;22.00;99.90;;;;;;5235321;28;20557;-52
2022/10/28 13:32:40;;;;;;;14.33;3.83;;;21.90;99.90;;;;;;5244765;28;20448;-53
2022/10/28 13:35:21;;;;;;;5.00;3.50;;;21.90;99.90;;;;;;5236135;28;20428;-53